Time;durP1;ratioP1;P1;durP2;ratioP2;P2;SDS_P1;SDS_P2;PMS_P1;PMS_P2;Temp;Humidity;BMP_temperature;BMP_pressure;BME280_temperature;BME280_humidity;BME280_pressure;Samples;Min_cycle;Max_cycle;Signal;HPM_P1;HPM_P2
2023/11/25 00:01:04;;;;;;;8.25;2.50;;;1.60;99.90;;;;;;5072883;28;20044;-74
2023/11/25 00:03:30;;;;;;;7.10;1.88;;;1.60;99.90;;;;;;5072473;28;20021;-74
2023/11/25 00:05:55;;;;;;;12.82;2.38;;;1.60;99.90;;;;;;5072930;28;20039;-74
2023/11/25 00:08:21;;;;;;;11.73;1.95;;;1.60;99.90;;;;;;5072833;28;20036;-74
2023/11/25 00:10:47;;;;;;;9.07;2.20;;;1.60;99.90;;;;;;5072703;28;20470;-74
2023/11/25 00:13:15;;;;;;;9.07;2.05;;;1.50;99.90;;;;;;5072031;28;20049;-74
2023/11/25 00:15:40;;;;;;;9.60;2.38;;;1.60;99.90;;;;;;5072711;28;20102;-74
2023/11/25 00:18:07;;;;;;;9.32;1.67;;;1.60;99.90;;;;;;5072670;28;20481;-74
2023/11/25 00:20:36;;;;;;;4.05;1.55;;;1.50;99.90;;;;;;5073107;28;20024;-74
2023/11/25 00:23:02;;;;;;;9.80;2.55;;;1.50;99.90;;;;;;5076021;28;20032;-74
2023/11/25 00:25:27;;;;;;;14.57;3.10;;;1.40;99.90;;;;;;5076077;28;20070;-74
2023/11/25 00:27:53;;;;;;;8.80;2.88;;;1.40;99.90;;;;;;5076182;28;20095;-74
2023/11/25 00:30:18;;;;;;;11.77;2.58;;;1.40;99.90;;;;;;5076165;28;20552;-74
2023/11/25 00:32:44;;;;;;;5.43;2.65;;;1.50;99.90;;;;;;5075980;28;20032;-74
2023/11/25 00:35:10;;;;;;;9.60;2.05;;;1.60;99.90;;;;;;5075530;28;20029;-74
2023/11/25 00:37:36;;;;;;;10.95;2.78;;;1.70;99.90;;;;;;5076070;28;20398;-74
2023/11/25 00:40:04;;;;;;;8.93;2.30;;;1.80;99.90;;;;;;5075893;28;20024;-74
2023/11/25 00:42:31;;;;;;;8.20;2.47;;;1.90;99.90;;;;;;5076007;28;20078;-74
2023/11/25 00:44:56;;;;;;;14.48;2.63;;;1.90;99.90;;;;;;5075545;28;20024;-74
2023/11/25 00:47:23;;;;;;;13.40;2.42;;;2.00;99.90;;;;;;5075984;28;20086;-74
2023/11/25 00:49:49;;;;;;;6.05;2.00;;;2.00;99.90;;;;;;5075553;28;20116;-74
2023/11/25 00:52:15;;;;;;;10.20;2.22;;;2.10;99.90;;;;;;5075735;28;20134;-74
2023/11/25 00:54:41;;;;;;;11.80;2.13;;;2.10;99.90;;;;;;5075324;28;20036;-74
2023/11/25 00:57:06;;;;;;;8.75;2.15;;;2.10;99.90;;;;;;5075282;28;20036;-74
2023/11/25 00:59:32;;;;;;;10.52;2.53;;;2.20;99.90;;;;;;5075637;28;20032;-74
2023/11/25 01:01:57;;;;;;;7.47;2.05;;;2.20;99.90;;;;;;5075834;28;20029;-74
2023/11/25 01:04:23;;;;;;;8.40;2.60;;;2.20;99.90;;;;;;5075737;28;20031;-74
2023/11/25 01:06:49;;;;;;;10.73;2.50;;;2.20;99.90;;;;;;5075668;28;20063;-74
2023/11/25 01:09:16;;;;;;;8.85;2.58;;;2.30;99.90;;;;;;5075397;28;20017;-74
2023/11/25 01:11:43;;;;;;;10.65;2.78;;;2.30;99.90;;;;;;5075067;28;20028;-74
2023/11/25 01:14:09;;;;;;;10.70;2.60;;;2.30;99.90;;;;;;5074773;28;20080;-74
2023/11/25 01:16:35;;;;;;;7.47;2.60;;;2.30;99.90;;;;;;5075060;28;20056;-75
2023/11/25 01:19:00;;;;;;;10.80;2.53;;;2.20;99.90;;;;;;5075396;28;20539;-74
2023/11/25 01:21:26;;;;;;;12.00;2.85;;;2.20;99.90;;;;;;5075192;28;20032;-74
2023/11/25 01:23:51;;;;;;;8.70;2.65;;;2.20;99.90;;;;;;5075146;28;20064;-74
2023/11/25 01:26:17;;;;;;;12.90;3.08;;;2.20;99.90;;;;;;5075205;28;20033;-74
2023/11/25 01:28:43;;;;;;;16.52;2.97;;;2.20;99.90;;;;;;5075030;28;20508;-74
2023/11/25 01:31:10;;;;;;;13.30;3.42;;;2.20;99.90;;;;;;5075157;28;20452;-74
2023/11/25 01:33:36;;;;;;;10.52;3.13;;;2.20;99.90;;;;;;5074893;28;20024;-74
2023/11/25 01:36:02;;;;;;;11.05;2.88;;;2.20;99.90;;;;;;5074593;28;20028;-75
2023/11/25 01:38:28;;;;;;;11.15;2.65;;;2.20;99.90;;;;;;5074977;28;20029;-75
2023/11/25 01:40:55;;;;;;;9.68;3.45;;;2.20;99.90;;;;;;5074985;28;20385;-75
2023/11/25 01:43:23;;;;;;;12.73;3.10;;;2.20;99.90;;;;;;5074256;28;20032;-75
2023/11/25 01:45:50;;;;;;;8.63;3.17;;;2.20;99.90;;;;;;5074897;28;20086;-74
2023/11/25 01:48:16;;;;;;;12.13;3.15;;;2.20;99.90;;;;;;5074759;28;20433;-74
2023/11/25 01:50:45;;;;;;;10.93;3.03;;;2.20;99.90;;;;;;5074643;28;20033;-75
2023/11/25 01:53:13;;;;;;;14.73;2.90;;;2.30;99.90;;;;;;5074415;28;20033;-75
2023/11/25 01:55:40;;;;;;;13.35;2.58;;;2.30;99.90;;;;;;5074503;28;20103;-75
2023/11/25 01:58:06;;;;;;;7.72;2.08;;;2.30;99.90;;;;;;5074517;28;20466;-74
2023/11/25 02:00:34;;;;;;;12.23;2.63;;;2.30;99.90;;;;;;5074371;28;20020;-74
2023/11/25 02:03:00;;;;;;;8.55;2.58;;;2.30;99.90;;;;;;5074352;28;20017;-74
2023/11/25 02:05:27;;;;;;;5.07;2.50;;;2.30;99.90;;;;;;5074321;28;20034;-74
2023/11/25 02:07:52;;;;;;;12.38;2.70;;;2.30;99.90;;;;;;5073906;28;20017;-75
2023/11/25 02:10:19;;;;;;;7.88;2.40;;;2.30;99.90;;;;;;5074182;28;20078;-75
2023/11/25 02:12:46;;;;;;;10.82;2.38;;;2.40;99.90;;;;;;5073950;28;20037;-75
2023/11/25 02:15:14;;;;;;;9.35;2.20;;;2.40;99.90;;;;;;5073797;28;20040;-75
2023/11/25 02:17:41;;;;;;;10.30;2.95;;;2.40;99.90;;;;;;5074031;28;20032;-75
2023/11/25 02:20:08;;;;;;;9.88;2.90;;;2.40;99.90;;;;;;5074090;28;20398;-74
2023/11/25 02:22:36;;;;;;;11.57;2.70;;;2.50;99.90;;;;;;5074059;28;20027;-75
2023/11/25 02:25:04;;;;;;;7.38;2.13;;;2.50;99.90;;;;;;5073477;28;20032;-75
2023/11/25 02:27:29;;;;;;;9.95;2.42;;;2.40;99.90;;;;;;5073552;28;20067;-75
2023/11/25 02:29:55;;;;;;;7.22;2.67;;;2.40;99.90;;;;;;5073894;28;20447;-75
2023/11/25 02:32:21;;;;;;;12.30;2.80;;;2.40;99.90;;;;;;5073905;28;20020;-75
2023/11/25 02:34:47;;;;;;;6.00;2.50;;;2.30;99.90;;;;;;5073464;28;20059;-74
2023/11/25 02:37:15;;;;;;;11.05;2.70;;;2.20;99.90;;;;;;5073475;28;20020;-75
2023/11/25 02:39:41;;;;;;;10.63;3.17;;;2.20;99.90;;;;;;5073306;28;20070;-75
2023/11/25 02:42:09;;;;;;;11.43;2.85;;;2.10;99.90;;;;;;5073334;28;20017;-75
2023/11/25 02:44:35;;;;;;;15.93;3.78;;;2.00;99.90;;;;;;5073226;28;20115;-75
2023/11/25 02:47:01;;;;;;;19.00;3.53;;;2.00;99.90;;;;;;5073667;28;20471;-75
2023/11/25 02:49:27;;;;;;;11.25;2.90;;;2.00;99.90;;;;;;5073626;28;20032;-75
2023/11/25 02:51:54;;;;;;;9.50;2.38;;;2.00;99.90;;;;;;5073639;28;20146;-75
2023/11/25 02:54:21;;;;;;;7.85;2.50;;;2.00;99.90;;;;;;5073198;28;20020;-75
2023/11/25 02:56:46;;;;;;;10.45;2.63;;;2.00;99.90;;;;;;5073087;28;20021;-75
2023/11/25 02:59:12;;;;;;;7.65;2.30;;;2.00;99.90;;;;;;5073571;28;20024;-75
2023/11/25 03:01:47;;;;;;;11.93;2.58;;;2.00;99.90;;;;;;5073463;28;20024;-75
2023/11/25 03:04:15;;;;;;;10.52;2.20;;;1.90;99.90;;;;;;5073020;28;20029;-75
2023/11/25 03:06:41;;;;;;;12.73;2.95;;;1.90;99.90;;;;;;5073014;28;20024;-75
2023/11/25 03:09:09;;;;;;;11.65;2.55;;;2.00;99.90;;;;;;5073378;28;20470;-75
2023/11/25 03:11:35;;;;;;;11.52;2.78;;;1.90;99.90;;;;;;5073446;28;20422;-75
2023/11/25 03:14:00;;;;;;;13.02;2.92;;;1.90;99.90;;;;;;5072921;28;20045;-75
2023/11/25 03:16:26;;;;;;;9.85;2.80;;;1.80;99.90;;;;;;5073281;28;20478;-75
2023/11/25 03:18:52;;;;;;;15.27;3.58;;;1.80;99.90;;;;;;5073440;28;20037;-75
2023/11/25 03:21:18;;;;;;;17.10;2.92;;;1.80;99.90;;;;;;5073140;28;20036;-75
2023/11/25 03:23:44;;;;;;;11.18;3.28;;;1.90;99.90;;;;;;5073116;28;20370;-75
2023/11/25 03:26:12;;;;;;;12.65;3.65;;;1.90;99.90;;;;;;5073284;28;20032;-75
2023/11/25 03:28:37;;;;;;;17.23;4.22;;;1.90;99.90;;;;;;5073146;28;20017;-75
2023/11/25 03:31:04;;;;;;;17.38;4.25;;;1.90;99.90;;;;;;5073129;28;20497;-75
2023/11/25 03:33:31;;;;;;;24.48;4.47;;;2.00;99.90;;;;;;5073106;28;20028;-75
2023/11/25 03:35:56;;;;;;;24.50;4.57;;;1.90;99.90;;;;;;5073274;28;20025;-75
2023/11/25 03:38:22;;;;;;;18.27;4.80;;;2.00;99.90;;;;;;5072887;28;20390;-74
2023/11/25 03:40:48;;;;;;;22.70;4.95;;;2.00;99.90;;;;;;5072914;28;20025;-75
2023/11/25 03:43:14;;;;;;;16.45;4.32;;;2.00;99.90;;;;;;5072638;28;20039;-74
2023/11/25 03:45:40;;;;;;;20.30;4.50;;;2.00;99.90;;;;;;5072651;28;20059;-75
2023/11/25 03:48:06;;;;;;;24.00;4.53;;;2.00;99.90;;;;;;5073131;28;20028;-75
2023/11/25 03:50:31;;;;;;;20.33;5.03;;;2.00;99.90;;;;;;5073133;28;20059;-75
2023/11/25 03:52:57;;;;;;;21.48;4.97;;;1.90;99.90;;;;;;5072957;28;20036;-75
2023/11/25 03:55:23;;;;;;;26.08;5.45;;;2.00;99.90;;;;;;5073197;28;20056;-75
2023/11/25 03:57:48;;;;;;;20.40;6.25;;;2.10;99.90;;;;;;5076791;28;20029;-75
2023/11/25 04:00:14;;;;;;;22.23;6.43;;;2.10;99.90;;;;;;5076699;28;20031;-75
2023/11/25 04:02:44;;;;;;;22.98;7.22;;;2.10;99.90;;;;;;5076654;28;20025;-75
2023/11/25 04:05:11;;;;;;;23.25;6.20;;;2.10;99.90;;;;;;5076606;28;20025;-75
2023/11/25 04:07:37;;;;;;;26.25;7.85;;;2.20;99.90;;;;;;5076591;28;20025;-75
2023/11/25 04:10:12;;;;;;;22.13;6.57;;;2.20;99.90;;;;;;5076553;28;20390;-75
2023/11/25 04:12:39;;;;;;;23.08;7.32;;;2.20;99.90;;;;;;5075851;28;20040;-75
2023/11/25 04:15:06;;;;;;;23.40;7.53;;;2.20;99.90;;;;;;5076152;28;20439;-75
2023/11/25 04:17:31;;;;;;;27.77;6.93;;;2.10;99.90;;;;;;5076509;28;20027;-75
2023/11/25 04:19:57;;;;;;;17.52;6.07;;;2.10;99.90;;;;;;5076480;28;20116;-75
2023/11/25 04:22:23;;;;;;;21.85;6.35;;;2.10;99.90;;;;;;5076469;28;20020;-75
2023/11/25 04:24:49;;;;;;;26.90;6.60;;;2.10;99.90;;;;;;5075824;28;20024;-75
2023/11/25 04:27:16;;;;;;;21.98;6.53;;;2.00;99.90;;;;;;5075903;28;20028;-75
2023/11/25 04:29:42;;;;;;;20.65;7.00;;;1.90;99.90;;;;;;5076232;28;20027;-75
2023/11/25 04:32:09;;;;;;;25.20;6.20;;;1.90;99.90;;;;;;5076460;28;20032;-75
2023/11/25 04:34:34;;;;;;;31.45;7.95;;;1.90;99.90;;;;;;5075671;28;20115;-75
2023/11/25 04:37:00;;;;;;;20.05;6.57;;;1.80;99.90;;;;;;5076108;28;20489;-75
2023/11/25 04:39:25;;;;;;;27.08;7.28;;;1.90;99.90;;;;;;5075850;28;20029;-75
2023/11/25 04:41:51;;;;;;;23.15;6.05;;;1.90;99.90;;;;;;5075907;28;20024;-75
2023/11/25 04:44:16;;;;;;;27.17;7.00;;;1.90;99.90;;;;;;5075905;28;20486;-75
2023/11/25 04:46:45;;;;;;;19.73;6.45;;;1.90;99.90;;;;;;5075469;28;20025;-75
2023/11/25 04:49:11;;;;;;;28.50;7.32;;;1.90;99.90;;;;;;5075487;28;20029;-75
2023/11/25 04:51:37;;;;;;;26.33;6.25;;;2.00;99.90;;;;;;5075438;28;20047;-75
2023/11/25 04:54:03;;;;;;;28.25;6.47;;;2.00;99.90;;;;;;5075662;28;20033;-75
2023/11/25 04:56:29;;;;;;;17.60;5.90;;;2.10;99.90;;;;;;5075219;28;20025;-75
2023/11/25 04:58:54;;;;;;;33.42;7.18;;;2.10;99.90;;;;;;5075439;28;20039;-75
2023/11/25 05:01:20;;;;;;;23.83;7.20;;;2.10;99.90;;;;;;5075555;28;20060;-75
2023/11/25 05:03:45;;;;;;;29.35;7.57;;;2.20;99.90;;;;;;5075637;28;20040;-75
2023/11/25 05:06:11;;;;;;;29.67;7.50;;;2.10;99.90;;;;;;5074802;28;20028;-75
2023/11/25 05:08:36;;;;;;;31.25;6.82;;;2.20;99.90;;;;;;5075466;28;20035;-75
2023/11/25 05:11:03;;;;;;;37.38;7.60;;;2.20;99.90;;;;;;5075586;28;20064;-75
2023/11/25 05:13:29;;;;;;;32.60;6.45;;;2.10;99.90;;;;;;5074775;28;20045;-75
2023/11/25 05:15:55;;;;;;;30.65;7.10;;;2.20;99.90;;;;;;5075089;28;20016;-75
2023/11/25 05:18:21;;;;;;;26.88;6.28;;;2.20;99.90;;;;;;5075221;28;20025;-75
2023/11/25 05:20:47;;;;;;;28.52;5.97;;;2.20;99.90;;;;;;5075353;28;20016;-75
2023/11/25 05:23:12;;;;;;;32.95;6.38;;;2.30;99.90;;;;;;5075176;28;20043;-75
2023/11/25 05:25:38;;;;;;;30.17;5.45;;;2.30;99.90;;;;;;5075300;28;20367;-75
2023/11/25 05:28:03;;;;;;;19.42;5.88;;;2.40;99.90;;;;;;5075451;28;20025;-75
2023/11/25 05:30:30;;;;;;;33.38;6.20;;;2.40;99.90;;;;;;5075156;28;20024;-75
2023/11/25 05:32:55;;;;;;;21.33;5.78;;;2.40;99.90;;;;;;5075054;28;20017;-75
2023/11/25 05:35:21;;;;;;;28.33;5.88;;;2.40;99.90;;;;;;5074491;28;20398;-75
2023/11/25 05:37:48;;;;;;;23.67;5.63;;;2.40;99.90;;;;;;5074839;28;20393;-75
2023/11/25 05:40:14;;;;;;;30.15;5.85;;;2.40;99.90;;;;;;5074476;28;20021;-75
2023/11/25 05:42:47;;;;;;;27.50;5.93;;;2.40;99.90;;;;;;5074361;28;20424;-75
2023/11/25 05:45:12;;;;;;;28.38;5.45;;;2.40;99.90;;;;;;5074738;28;20482;-75
2023/11/25 05:47:38;;;;;;;29.10;5.97;;;2.40;99.90;;;;;;5074820;28;20089;-75
2023/11/25 05:50:05;;;;;;;29.13;6.85;;;2.40;99.90;;;;;;5074695;28;20028;-75
2023/11/25 05:52:30;;;;;;;33.30;6.15;;;2.40;99.90;;;;;;5074251;28;20428;-75
2023/11/25 05:54:56;;;;;;;21.02;5.38;;;2.30;99.90;;;;;;5074416;28;20024;-75
2023/11/25 05:57:22;;;;;;;20.35;5.03;;;2.30;99.90;;;;;;5074378;28;20020;-75
2023/11/25 05:59:47;;;;;;;18.92;5.40;;;2.30;99.90;;;;;;5074557;28;20020;-75
2023/11/25 06:02:13;;;;;;;24.33;5.53;;;2.30;99.90;;;;;;5074502;28;20181;-75
2023/11/25 06:04:39;;;;;;;23.20;6.03;;;2.30;99.90;;;;;;5074348;28;20039;-75
2023/11/25 06:07:05;;;;;;;25.80;6.30;;;2.30;99.90;;;;;;5074311;28;20040;-75
2023/11/25 06:09:31;;;;;;;33.13;6.82;;;2.30;99.90;;;;;;5074336;28;20042;-75
2023/11/25 06:11:57;;;;;;;25.27;4.95;;;2.30;99.90;;;;;;5073952;28;20024;-75
2023/11/25 06:14:24;;;;;;;25.38;6.00;;;2.40;99.90;;;;;;5073757;28;20044;-75
2023/11/25 06:16:56;;;;;;;29.90;6.20;;;2.40;99.90;;;;;;5074086;28;20025;-75
2023/11/25 06:19:23;;;;;;;31.35;5.32;;;2.40;99.90;;;;;;5073393;28;20028;-75
2023/11/25 06:21:48;;;;;;;15.88;5.65;;;2.50;99.90;;;;;;5074057;28;20047;-75
2023/11/25 06:24:15;;;;;;;22.30;5.00;;;2.50;99.90;;;;;;5073982;28;20029;-75
2023/11/25 06:26:41;;;;;;;23.77;5.60;;;2.50;99.90;;;;;;5073784;28;20032;-75
2023/11/25 06:29:07;;;;;;;24.15;6.80;;;2.60;99.90;;;;;;5074035;28;20074;-75
2023/11/25 06:31:35;;;;;;;27.42;5.00;;;2.60;99.90;;;;;;5073878;28;20029;-75
2023/11/25 06:34:01;;;;;;;24.85;4.97;;;2.60;99.90;;;;;;5073644;28;20486;-75
2023/11/25 06:36:26;;;;;;;36.75;6.30;;;2.60;99.90;;;;;;5073947;28;20063;-75
2023/11/25 06:38:52;;;;;;;23.27;5.47;;;2.70;99.90;;;;;;5073305;28;20067;-75
2023/11/25 06:41:21;;;;;;;35.03;5.78;;;2.70;99.90;;;;;;5073288;28;20050;-75
2023/11/25 06:43:47;;;;;;;32.55;6.13;;;2.70;99.90;;;;;;5073679;28;20028;-75
2023/11/25 06:46:14;;;;;;;23.77;4.68;;;2.70;99.90;;;;;;5073625;28;20035;-75
2023/11/25 06:48:39;;;;;;;27.20;5.55;;;2.70;99.90;;;;;;5073675;28;20031;-75
2023/11/25 06:51:05;;;;;;;32.00;5.65;;;2.70;99.90;;;;;;5073249;28;20028;-75
2023/11/25 06:53:31;;;;;;;22.70;5.43;;;2.70;99.90;;;;;;5073538;28;20028;-75
2023/11/25 06:55:58;;;;;;;23.65;5.53;;;2.80;99.90;;;;;;5073591;28;20016;-75
2023/11/25 06:58:25;;;;;;;29.30;4.65;;;2.70;99.90;;;;;;5073715;28;20024;-75
2023/11/25 07:00:51;;;;;;;31.27;5.00;;;2.80;99.90;;;;;;5073427;28;20039;-75
2023/11/25 07:03:16;;;;;;;29.67;5.20;;;2.80;99.90;;;;;;5073484;28;20466;-75
2023/11/25 07:05:42;;;;;;;32.53;4.55;;;2.80;99.90;;;;;;5073483;28;20024;-75
2023/11/25 07:08:07;;;;;;;29.38;4.70;;;2.90;99.90;;;;;;5073271;28;20031;-75
2023/11/25 07:10:34;;;;;;;26.17;4.70;;;2.90;99.90;;;;;;5073390;28;20020;-75
2023/11/25 07:13:01;;;;;;;20.33;4.68;;;2.90;99.90;;;;;;5073207;28;20032;-75
2023/11/25 07:15:27;;;;;;;22.10;4.38;;;3.00;99.90;;;;;;5073123;28;20041;-75
2023/11/25 07:17:52;;;;;;;18.33;3.67;;;3.00;99.90;;;;;;5073226;28;20070;-75
2023/11/25 07:20:18;;;;;;;15.18;3.10;;;3.00;99.90;;;;;;5073213;28;20037;-75
2023/11/25 07:22:44;;;;;;;27.50;4.93;;;3.10;99.90;;;;;;5073217;28;20066;-75
2023/11/25 07:25:12;;;;;;;18.02;3.67;;;3.10;99.90;;;;;;5073275;28;20482;-75
2023/11/25 07:27:39;;;;;;;22.70;3.92;;;3.10;99.90;;;;;;5073182;28;20475;-75
2023/11/25 07:30:08;;;;;;;27.20;3.65;;;3.10;99.90;;;;;;5074810;28;20390;-75
2023/11/25 07:32:34;;;;;;;23.17;3.92;;;3.10;99.90;;;;;;5077416;28;20098;-75
2023/11/25 07:35:00;;;;;;;16.00;3.08;;;3.20;99.90;;;;;;5077117;28;20024;-75
2023/11/25 07:37:26;;;;;;;14.85;3.25;;;3.20;99.90;;;;;;5077334;28;20025;-75
2023/11/25 07:39:53;;;;;;;13.75;3.15;;;3.20;99.90;;;;;;5076743;28;20024;-75
2023/11/25 07:42:18;;;;;;;20.80;3.38;;;3.20;99.90;;;;;;5077187;28;20074;-74
2023/11/25 07:44:44;;;;;;;14.85;2.75;;;3.20;99.90;;;;;;5077114;28;20478;-75
2023/11/25 07:47:11;;;;;;;18.00;3.00;;;3.30;99.90;;;;;;5077009;28;20036;-75
2023/11/25 07:49:36;;;;;;;17.15;3.58;;;3.30;99.90;;;;;;5077032;28;20082;-75
2023/11/25 07:52:02;;;;;;;21.80;3.75;;;3.40;99.90;;;;;;5076972;28;20508;-75
2023/11/25 07:54:28;;;;;;;15.82;2.78;;;3.40;99.90;;;;;;5076764;28;20032;-75
2023/11/25 07:56:54;;;;;;;21.38;3.70;;;3.50;99.90;;;;;;5076812;28;20105;-75
2023/11/25 07:59:20;;;;;;;18.58;3.55;;;3.50;99.90;;;;;;5076675;28;20033;-75
2023/11/25 08:01:46;;;;;;;18.20;3.20;;;3.50;99.90;;;;;;5076633;28;20386;-75
2023/11/25 08:04:12;;;;;;;7.90;2.88;;;3.60;99.90;;;;;;5076340;28;20020;-75
2023/11/25 08:06:38;;;;;;;14.55;2.85;;;3.60;99.90;;;;;;5076608;28;20031;-75
2023/11/25 08:09:04;;;;;;;19.20;2.58;;;3.60;99.90;;;;;;5076200;28;20032;-75
2023/11/25 08:11:32;;;;;;;12.65;2.35;;;3.70;99.90;;;;;;5076337;28;20478;-75
2023/11/25 08:13:57;;;;;;;10.00;2.15;;;3.70;99.90;;;;;;5076067;28;20045;-75
2023/11/25 08:16:23;;;;;;;10.30;1.70;;;3.70;99.90;;;;;;5076382;28;20100;-75
2023/11/25 08:18:49;;;;;;;13.43;2.60;;;3.80;99.90;;;;;;5076437;28;20031;-75
2023/11/25 08:21:14;;;;;;;11.75;1.73;;;3.80;99.90;;;;;;5076348;28;20016;-75
2023/11/25 08:23:41;;;;;;;8.43;1.88;;;3.80;99.90;;;;;;5076010;28;20025;-74
2023/11/25 08:26:17;;;;;;;13.20;2.08;;;3.90;99.90;;;;;;5075797;28;20033;-75
2023/11/25 08:28:43;;;;;;;9.38;1.42;;;3.90;99.90;;;;;;5076203;28;20025;-75
2023/11/25 08:31:08;;;;;;;7.70;1.75;;;4.00;99.90;;;;;;5075702;28;20031;-75
2023/11/25 08:33:34;;;;;;;8.40;1.38;;;4.00;99.90;;;;;;5075979;28;20454;-75
2023/11/25 08:36:00;;;;;;;6.88;1.40;;;4.10;99.90;;;;;;5076063;28;20035;-75
2023/11/25 08:38:25;;;;;;;6.90;2.40;;;4.20;99.90;;;;;;5076010;28;20029;-75
2023/11/25 08:40:51;;;;;;;13.35;1.90;;;4.20;99.90;;;;;;5075729;28;20032;-75
2023/11/25 08:43:17;;;;;;;11.02;2.13;;;4.20;99.90;;;;;;5075448;28;20429;-75
2023/11/25 08:45:47;;;;;;;8.13;1.92;;;4.20;99.90;;;;;;5075892;28;20056;-74
2023/11/25 08:48:14;;;;;;;15.52;3.15;;;4.20;99.90;;;;;;5075370;28;20020;-75
2023/11/25 08:50:40;;;;;;;9.05;2.90;;;4.20;99.90;;;;;;5075750;28;20032;-74
2023/11/25 08:53:07;;;;;;;9.68;2.15;;;4.30;99.90;;;;;;5075581;28;20028;-75
2023/11/25 08:55:33;;;;;;;10.45;2.47;;;4.50;99.90;;;;;;5075651;28;20032;-75
2023/11/25 08:57:59;;;;;;;8.82;2.20;;;4.70;99.90;;;;;;5075913;28;20448;-75
2023/11/25 09:00:25;;;;;;;18.67;3.00;;;4.80;99.90;;;;;;5075445;28;20386;-75
2023/11/25 09:02:51;;;;;;;11.38;2.20;;;4.80;99.90;;;;;;5075310;28;20397;-75
2023/11/25 09:05:21;;;;;;;8.98;2.45;;;4.70;99.90;;;;;;5075474;28;20112;-75
2023/11/25 09:07:50;;;;;;;17.08;3.53;;;4.60;99.90;;;;;;5075465;28;20029;-75
2023/11/25 09:10:17;;;;;;;12.43;2.50;;;4.60;99.90;;;;;;5075317;28;20386;-75
2023/11/25 09:12:45;;;;;;;7.75;2.58;;;4.50;99.90;;;;;;5075167;28;20032;-75
2023/11/25 09:15:12;;;;;;;12.73;2.85;;;4.50;99.90;;;;;;5075114;28;20075;-75
2023/11/25 09:17:39;;;;;;;13.40;3.28;;;4.40;99.90;;;;;;5075425;28;20582;-75
2023/11/25 09:20:09;;;;;;;15.20;3.28;;;4.30;99.90;;;;;;5075187;28;20036;-75
2023/11/25 09:22:36;;;;;;;11.95;2.63;;;4.30;99.90;;;;;;5074856;28;20058;-75
2023/11/25 09:25:02;;;;;;;15.00;3.05;;;4.20;99.90;;;;;;5075197;28;20029;-75
2023/11/25 09:27:28;;;;;;;9.43;2.38;;;4.20;99.90;;;;;;5075157;28;20029;-75
2023/11/25 09:29:53;;;;;;;13.48;2.75;;;4.20;99.90;;;;;;5075009;28;20035;-75
2023/11/25 09:32:19;;;;;;;11.63;2.60;;;4.20;99.90;;;;;;5074920;28;20028;-75
2023/11/25 09:34:46;;;;;;;12.70;3.13;;;4.20;99.90;;;;;;5074793;28;20088;-75
2023/11/25 09:37:12;;;;;;;14.90;3.33;;;4.20;99.90;;;;;;5074971;28;20496;-75
2023/11/25 09:39:37;;;;;;;14.68;2.65;;;4.30;99.90;;;;;;5074479;28;20025;-75
2023/11/25 09:42:03;;;;;;;10.52;3.15;;;4.30;99.90;;;;;;5074519;28;20035;-75
2023/11/25 09:44:30;;;;;;;20.73;3.22;;;4.30;99.90;;;;;;5074835;28;20060;-75
2023/11/25 09:46:56;;;;;;;15.30;3.00;;;4.30;99.90;;;;;;5074732;28;20074;-75
2023/11/25 09:49:22;;;;;;;12.25;2.97;;;4.30;99.90;;;;;;5074379;28;20382;-75
2023/11/25 09:51:48;;;;;;;11.13;3.03;;;4.30;99.90;;;;;;5074213;28;20060;-75
2023/11/25 09:54:20;;;;;;;13.90;2.92;;;4.30;99.90;;;;;;5073422;28;20063;-75
2023/11/25 09:56:50;;;;;;;14.52;3.33;;;4.40;99.90;;;;;;5074514;28;20025;-75
2023/11/25 09:59:15;;;;;;;14.50;3.08;;;4.30;99.90;;;;;;5074465;28;20032;-75
2023/11/25 10:01:42;;;;;;;13.85;3.28;;;4.40;99.90;;;;;;5074029;28;20493;-75
2023/11/25 10:04:08;;;;;;;13.88;3.40;;;4.50;99.90;;;;;;5074491;28;20111;-75
2023/11/25 10:06:33;;;;;;;10.98;3.22;;;4.60;99.90;;;;;;5073950;28;20075;-75
2023/11/25 10:08:59;;;;;;;10.57;3.03;;;4.60;99.90;;;;;;5073929;28;20028;-75
2023/11/25 10:11:25;;;;;;;12.68;3.25;;;4.90;99.90;;;;;;5074211;28;20113;-75
2023/11/25 10:13:50;;;;;;;13.85;3.10;;;5.10;99.90;;;;;;5073692;28;20398;-75
2023/11/25 10:16:27;;;;;;;14.93;3.10;;;5.10;99.90;;;;;;5074145;28;20107;-75
2023/11/25 10:18:52;;;;;;;12.93;2.78;;;5.10;99.90;;;;;;5074020;28;20115;-75
2023/11/25 10:21:19;;;;;;;12.52;2.60;;;5.10;99.90;;;;;;5073962;28;20075;-75
2023/11/25 10:23:45;;;;;;;11.98;2.35;;;5.30;99.90;;;;;;5074035;28;20130;-75
2023/11/25 10:26:16;;;;;;;7.40;2.50;;;5.80;99.90;;;;;;5073854;28;20092;-74
2023/11/25 10:28:45;;;;;;;8.50;2.30;;;5.90;99.90;;;;;;5073885;28;20388;-75
2023/11/25 10:31:14;;;;;;;9.65;2.47;;;5.90;99.90;;;;;;5073866;28;20477;-75
2023/11/25 10:33:41;;;;;;;8.23;2.28;;;6.00;99.90;;;;;;5073751;28;20396;-75
2023/11/25 10:36:08;;;;;;;6.80;1.90;;;6.10;99.90;;;;;;5073503;28;20371;-75
2023/11/25 10:38:34;;;;;;;8.40;1.85;;;5.90;99.90;;;;;;5073845;28;20028;-75
2023/11/25 10:41:00;;;;;;;9.95;1.80;;;5.80;99.90;;;;;;5073470;28;20033;-75
2023/11/25 10:43:27;;;;;;;9.88;1.95;;;5.80;99.90;;;;;;5073652;28;20132;-74
2023/11/25 10:46:09;;;;;;;7.07;2.13;;;5.90;99.90;;;;;;5073628;28;20020;-75
2023/11/25 10:48:38;;;;;;;12.75;2.72;;;5.80;99.90;;;;;;5073800;28;20498;-74
2023/11/25 10:51:05;;;;;;;7.10;2.42;;;6.30;99.90;;;;;;5073790;28;20474;-75
2023/11/25 10:53:31;;;;;;;10.23;2.08;;;6.90;99.90;;;;;;5073574;28;20040;-75
2023/11/25 10:55:58;;;;;;;7.68;1.80;;;7.40;99.90;;;;;;5073555;28;20037;-75
2023/11/25 10:58:26;;;;;;;7.22;1.63;;;7.00;99.90;;;;;;5073462;28;20028;-75
2023/11/25 11:00:53;;;;;;;10.60;1.70;;;6.90;99.90;;;;;;5073466;28;20024;-76
2023/11/25 11:03:22;;;;;;;7.68;1.90;;;6.80;99.90;;;;;;5073426;28;20020;-76
2023/11/25 11:05:55;;;;;;;12.40;2.20;;;6.70;99.90;;;;;;5073010;28;20024;-76
2023/11/25 11:08:24;;;;;;;;;;;6.50;99.90;;;;;;5073751;28;20094;-76
2023/11/25 11:10:59;;;;;;;8.20;1.65;;;6.30;99.90;;;;;;5073405;28;19904;-76
2023/11/25 11:13:31;;;;;;;14.05;2.45;;;6.30;99.90;;;;;;5073026;28;20052;-76
2023/11/25 11:16:00;;;;;;;;;;;6.40;99.90;;;;;;5073529;28;20048;-75
2023/11/25 11:18:35;;;;;;;13.45;2.47;;;6.20;99.90;;;;;;5072849;28;19944;-76
2023/11/25 11:21:02;;;;;;;11.25;2.20;;;6.30;99.90;;;;;;5072806;28;20074;-75
2023/11/25 11:23:28;;;;;;;9.50;2.30;;;6.30;99.90;;;;;;5073166;28;20050;-76
2023/11/25 11:26:14;;;;;;;14.13;2.35;;;6.40;99.90;;;;;;5073190;28;20032;-76
2023/11/25 11:29:04;;;;;;;10.30;2.42;;;6.40;99.90;;;;;;5073067;28;20033;-76
2023/11/25 11:31:59;;;;;;;10.00;1.90;;;6.40;99.90;;;;;;5073277;28;20032;-76
2023/11/25 11:34:29;;;;;;;8.73;1.88;;;6.40;99.90;;;;;;5072966;28;20116;-76
2023/11/25 11:36:55;;;;;;;10.63;2.25;;;6.20;99.90;;;;;;5073084;28;20043;-76
2023/11/25 11:39:57;;;;;;;7.22;1.90;;;6.10;99.90;;;;;;5073049;28;20029;-76
2023/11/25 11:47:40;;;;;;;8.80;1.60;;;6.00;99.90;;;;;;5070664;28;20378;-75
2023/11/25 11:50:08;;;;;;;6.05;1.35;;;6.10;99.90;;;;;;5070345;28;20036;-75
2023/11/25 11:52:45;;;;;;;4.82;1.50;;;6.10;99.90;;;;;;5070733;28;20029;-74
2023/11/25 11:55:34;;;;;;;8.65;1.60;;;6.10;99.90;;;;;;5070255;28;20033;-75
2023/11/25 11:58:09;;;;;;;10.57;2.25;;;6.20;99.90;;;;;;5070675;28;20033;-75
2023/11/25 12:00:56;;;;;;;6.15;1.60;;;6.10;99.90;;;;;;5070086;28;20075;-74
2023/11/25 12:03:22;;;;;;;10.27;2.28;;;6.00;99.90;;;;;;5070317;28;20032;-74
2023/11/25 12:05:48;;;;;;;8.98;1.85;;;6.00;99.90;;;;;;5070278;28;20078;-74
2023/11/25 12:08:13;;;;;;;12.48;2.28;;;6.00;99.90;;;;;;5070334;28;20547;-74
2023/11/25 12:10:39;;;;;;;10.45;2.13;;;6.00;99.90;;;;;;5070288;28;20028;-75
2023/11/25 12:13:05;;;;;;;7.50;2.38;;;6.00;99.90;;;;;;5070297;28;20059;-75
2023/11/25 12:15:31;;;;;;;10.27;2.47;;;6.00;99.90;;;;;;5070171;28;20033;-75
2023/11/25 12:17:58;;;;;;;12.45;2.33;;;6.00;99.90;;;;;;5069709;28;20031;-75
2023/11/25 12:20:26;;;;;;;7.53;2.42;;;6.00;99.90;;;;;;5070115;28;20025;-75
2023/11/25 12:22:52;;;;;;;12.68;2.00;;;6.00;99.90;;;;;;5069634;28;20482;-75
2023/11/25 12:25:18;;;;;;;14.85;2.47;;;6.00;99.90;;;;;;5069862;28;20106;-75
2023/11/25 12:30:42;;;;;;;8.02;2.22;;;6.10;99.90;;;;;;5090703;28;20844;-75
2023/11/25 12:33:10;;;;;;;14.93;3.30;;;6.10;99.90;;;;;;5090857;28;20036;-75
2023/11/25 12:35:38;;;;;;;12.35;2.65;;;6.10;99.90;;;;;;5090916;28;20477;-74
2023/11/25 12:38:07;;;;;;;9.60;2.40;;;6.20;99.90;;;;;;5090960;28;20050;-74
2023/11/25 12:40:34;;;;;;;9.38;2.95;;;6.30;99.90;;;;;;5090761;28;20027;-74
2023/11/25 12:43:02;;;;;;;14.30;2.47;;;6.30;99.90;;;;;;5090871;28;20111;-74
2023/11/25 12:45:41;;;;;;;12.20;2.42;;;6.30;99.90;;;;;;5090531;28;20056;-74
2023/11/25 12:48:09;;;;;;;14.77;2.83;;;6.30;99.90;;;;;;5090751;28;20052;-74
2023/11/25 12:50:55;;;;;;;12.55;2.17;;;6.30;99.90;;;;;;5090331;28;20466;-74
2023/11/25 12:53:21;;;;;;;12.02;2.58;;;6.30;99.90;;;;;;5090285;28;20178;-74
2023/11/25 12:55:48;;;;;;;13.75;2.78;;;6.20;99.90;;;;;;5090067;28;20059;-75
2023/11/25 12:58:15;;;;;;;14.82;3.20;;;6.20;99.90;;;;;;5090417;28;20119;-75